Pagrindinis puslapis
METAR-TAF:

METAR-TAF

Oro uostai :

Robert L. Bradshaw tarptautinis oro uostas

Basteras, Sent Kitsas ir Nevis

platuma: 17-18N, ilguma: 062-41W, Aukštis: 48 m

Dabartinis oras

Ataskaita buvo paskelbta 3 valandos ir 51 minutes, ne 22:00 UTC
Vėjas 5 kt iš Šiaurės/Šiaurės Rytų
Temperatūra 26°C
Drėgmė 74%
Slėgis 1014 hPa
Matomumas 10 km arba daugiau
Mažai debesys ne aukštis 2200 ft

METAR: TKPK 282200Z 03005KT 9999 FEW022 26/21 Q1014

Laikas: 21:51 (01:51 UTC)

Prognozė

Ataskaita buvo paskelbta 2 valandos ir 12 minutes, ne 23:39 UTC
Prognozė galioja nuo 29 metu 00 UTC su 29 metu 24 UTC
Vėjas 4 kt iš Šiaurės Rytų
Matomumas: 10 km
Mažai debesys ne aukštis 2200 ft
Nuo 29 metu 1400 UTC
Vėjas 8 kt iš Rytų
Matomumas: 10 km
Mažai debesys ne aukštis 2400 ft
Nuo 29 metu 2100 UTC
Vėjas 4 kt iš Šiaurės Rytų
Matomumas: 10 km
Mažai debesys ne aukštis 2200 ft

TAF: TKPK 282339Z 2900/2924 04004KT P6SM FEW022 FM291400 09008KT P6SM FEW024 FM292100 04004KT P6SM FEW022 AMD NOT SKED 2902/2911

Orai ataskaitas ir orų prognozės (METAR, TAF).

turimą stotys yra geltonos ir raudonos taškus žemėlapyje.

Perkelti pele per norėdami pamatyti stoties vardą.

Tada spustelėkite, norėdami matyti oro stebėjimo ir prognozės.

Norėdami pakeisti žemėlapį: spustelėkite ant žalios mygtukų su juodo kryžiaus žemyn,; žalią mygtuką su brūkšneliu, jei norite nutolinti; arba žalių rodyklių gretimoms žemėlapius.


METAR-TAF: